sensor_id;sensor_type;location;lat;lon;timestamp;P1;durP1;ratioP1;P2;durP2;ratioP2
64932;SDS011;51446;53.850;10.662;2022-07-22T00:00:42;26.67;;;15.87;;
64932;SDS011;51446;53.850;10.662;2022-07-22T00:03:08;25.13;;;15.43;;
64932;SDS011;51446;53.850;10.662;2022-07-22T00:05:33;23.30;;;15.07;;
64932;SDS011;51446;53.850;10.662;2022-07-22T00:07:58;24.73;;;15.37;;
64932;SDS011;51446;53.850;10.662;2022-07-22T00:10:23;26.47;;;16.43;;
64932;SDS011;51446;53.850;10.662;2022-07-22T00:12:49;26.13;;;16.47;;
64932;SDS011;51446;53.850;10.662;2022-07-22T00:15:14;24.50;;;16.43;;
64932;SDS011;51446;53.850;10.662;2022-07-22T00:17:39;24.70;;;16.87;;
64932;SDS011;51446;53.850;10.662;2022-07-22T00:20:05;23.15;;;15.68;;
64932;SDS011;51446;53.850;10.662;2022-07-22T00:22:32;21.03;;;16.00;;
64932;SDS011;51446;53.850;10.662;2022-07-22T00:24:57;29.77;;;17.70;;
64932;SDS011;51446;53.850;10.662;2022-07-22T00:27:23;25.80;;;17.63;;
64932;SDS011;51446;53.850;10.662;2022-07-22T00:29:48;28.43;;;18.63;;
64932;SDS011;51446;53.850;10.662;2022-07-22T00:32:13;23.20;;;16.60;;
64932;SDS011;51446;53.850;10.662;2022-07-22T00:34:39;22.73;;;16.38;;
64932;SDS011;51446;53.850;10.662;2022-07-22T00:37:04;25.47;;;17.50;;
64932;SDS011;51446;53.850;10.662;2022-07-22T00:39:31;25.50;;;17.00;;
64932;SDS011;51446;53.850;10.662;2022-07-22T00:41:56;28.63;;;17.98;;
64932;SDS011;51446;53.850;10.662;2022-07-22T00:44:21;25.27;;;17.47;;
64932;SDS011;51446;53.850;10.662;2022-07-22T00:46:47;27.37;;;18.53;;
64932;SDS011;51446;53.850;10.662;2022-07-22T00:49:12;28.67;;;19.57;;
64932;SDS011;51446;53.850;10.662;2022-07-22T00:51:37;30.13;;;18.90;;
64932;SDS011;51446;53.850;10.662;2022-07-22T00:54:04;26.45;;;17.88;;
64932;SDS011;51446;53.850;10.662;2022-07-22T00:56:29;30.70;;;18.60;;
64932;SDS011;51446;53.850;10.662;2022-07-22T00:58:56;27.52;;;18.23;;
64932;SDS011;51446;53.850;10.662;2022-07-22T01:01:25;29.67;;;18.92;;
64932;SDS011;51446;53.850;10.662;2022-07-22T01:03:50;25.90;;;18.13;;
64932;SDS011;51446;53.850;10.662;2022-07-22T01:06:15;26.63;;;19.30;;
64932;SDS011;51446;53.850;10.662;2022-07-22T01:08:41;27.00;;;19.57;;
64932;SDS011;51446;53.850;10.662;2022-07-22T01:11:11;24.35;;;18.85;;
64932;SDS011;51446;53.850;10.662;2022-07-22T01:13:38;26.17;;;18.55;;
64932;SDS011;51446;53.850;10.662;2022-07-22T01:16:04;25.00;;;19.58;;
64932;SDS011;51446;53.850;10.662;2022-07-22T01:18:30;25.40;;;18.57;;
64932;SDS011;51446;53.850;10.662;2022-07-22T01:20:55;28.48;;;19.45;;
64932;SDS011;51446;53.850;10.662;2022-07-22T01:23:21;28.33;;;18.37;;
64932;SDS011;51446;53.850;10.662;2022-07-22T01:25:46;25.93;;;17.43;;
64932;SDS011;51446;53.850;10.662;2022-07-22T01:28:12;30.60;;;18.97;;
64932;SDS011;51446;53.850;10.662;2022-07-22T01:30:37;32.90;;;19.83;;
64932;SDS011;51446;53.850;10.662;2022-07-22T01:33:02;28.87;;;18.47;;
64932;SDS011;51446;53.850;10.662;2022-07-22T01:35:27;30.53;;;19.30;;
64932;SDS011;51446;53.850;10.662;2022-07-22T01:37:53;29.33;;;19.07;;
64932;SDS011;51446;53.850;10.662;2022-07-22T01:40:18;35.13;;;20.90;;
64932;SDS011;51446;53.850;10.662;2022-07-22T01:42:43;27.00;;;18.87;;
64932;SDS011;51446;53.850;10.662;2022-07-22T01:45:09;27.97;;;14.87;;
64932;SDS011;51446;53.850;10.662;2022-07-22T01:47:34;15.90;;;9.47;;
64932;SDS011;51446;53.850;10.662;2022-07-22T01:50:00;15.10;;;9.00;;
64932;SDS011;51446;53.850;10.662;2022-07-22T01:52:25;12.80;;;8.40;;
64932;SDS011;51446;53.850;10.662;2022-07-22T01:54:50;13.97;;;8.60;;
64932;SDS011;51446;53.850;10.662;2022-07-22T01:57:15;12.97;;;8.10;;
64932;SDS011;51446;53.850;10.662;2022-07-22T01:59:41;10.13;;;6.20;;
64932;SDS011;51446;53.850;10.662;2022-07-22T02:02:06;10.83;;;6.10;;
64932;SDS011;51446;53.850;10.662;2022-07-22T02:04:31;9.70;;;5.63;;
64932;SDS011;51446;53.850;10.662;2022-07-22T02:06:56;8.93;;;5.47;;
64932;SDS011;51446;53.850;10.662;2022-07-22T02:09:22;7.97;;;5.43;;
64932;SDS011;51446;53.850;10.662;2022-07-22T02:11:47;12.00;;;5.77;;
64932;SDS011;51446;53.850;10.662;2022-07-22T02:14:12;10.50;;;5.30;;
64932;SDS011;51446;53.850;10.662;2022-07-22T02:16:37;8.47;;;5.20;;
64932;SDS011;51446;53.850;10.662;2022-07-22T02:19:03;6.63;;;4.87;;
64932;SDS011;51446;53.850;10.662;2022-07-22T02:21:28;7.10;;;4.50;;
64932;SDS011;51446;53.850;10.662;2022-07-22T02:23:54;7.03;;;4.45;;
64932;SDS011;51446;53.850;10.662;2022-07-22T02:26:19;6.53;;;4.97;;
64932;SDS011;51446;53.850;10.662;2022-07-22T02:28:45;6.77;;;4.20;;
64932;SDS011;51446;53.850;10.662;2022-07-22T02:31:10;5.67;;;4.10;;
64932;SDS011;51446;53.850;10.662;2022-07-22T02:33:36;8.52;;;3.70;;
64932;SDS011;51446;53.850;10.662;2022-07-22T02:36:01;7.03;;;3.50;;
64932;SDS011;51446;53.850;10.662;2022-07-22T02:38:26;10.40;;;3.60;;
64932;SDS011;51446;53.850;10.662;2022-07-22T02:40:51;8.70;;;3.87;;
64932;SDS011;51446;53.850;10.662;2022-07-22T02:43:17;5.77;;;3.23;;
64932;SDS011;51446;53.850;10.662;2022-07-22T02:45:42;8.27;;;3.67;;
64932;SDS011;51446;53.850;10.662;2022-07-22T02:48:07;6.90;;;3.20;;
64932;SDS011;51446;53.850;10.662;2022-07-22T02:50:33;8.77;;;3.00;;
64932;SDS011;51446;53.850;10.662;2022-07-22T02:52:58;6.70;;;3.10;;
64932;SDS011;51446;53.850;10.662;2022-07-22T02:55:24;9.07;;;3.15;;
64932;SDS011;51446;53.850;10.662;2022-07-22T02:57:49;8.53;;;3.07;;
64932;SDS011;51446;53.850;10.662;2022-07-22T03:00:15;9.73;;;3.17;;
64932;SDS011;51446;53.850;10.662;2022-07-22T03:02:41;8.27;;;3.63;;
64932;SDS011;51446;53.850;10.662;2022-07-22T03:05:06;8.37;;;3.03;;
64932;SDS011;51446;53.850;10.662;2022-07-22T03:07:32;6.88;;;3.38;;
64932;SDS011;51446;53.850;10.662;2022-07-22T03:09:57;9.40;;;3.30;;
64932;SDS011;51446;53.850;10.662;2022-07-22T03:12:23;6.53;;;3.20;;
64932;SDS011;51446;53.850;10.662;2022-07-22T03:14:48;8.50;;;2.77;;
64932;SDS011;51446;53.850;10.662;2022-07-22T03:17:13;7.97;;;2.83;;
64932;SDS011;51446;53.850;10.662;2022-07-22T03:19:39;8.03;;;2.60;;
64932;SDS011;51446;53.850;10.662;2022-07-22T03:22:04;7.87;;;2.90;;
64932;SDS011;51446;53.850;10.662;2022-07-22T03:24:30;9.63;;;2.80;;
64932;SDS011;51446;53.850;10.662;2022-07-22T03:26:55;5.43;;;2.43;;
64932;SDS011;51446;53.850;10.662;2022-07-22T03:29:20;8.53;;;2.93;;
64932;SDS011;51446;53.850;10.662;2022-07-22T03:31:45;9.93;;;2.80;;
64932;SDS011;51446;53.850;10.662;2022-07-22T03:34:11;7.33;;;2.90;;
64932;SDS011;51446;53.850;10.662;2022-07-22T03:36:36;7.10;;;2.60;;
64932;SDS011;51446;53.850;10.662;2022-07-22T03:39:01;10.20;;;3.27;;
64932;SDS011;51446;53.850;10.662;2022-07-22T03:41:26;13.07;;;2.50;;
64932;SDS011;51446;53.850;10.662;2022-07-22T03:43:52;8.03;;;2.80;;
64932;SDS011;51446;53.850;10.662;2022-07-22T03:46:17;10.83;;;2.37;;
64932;SDS011;51446;53.850;10.662;2022-07-22T03:48:42;9.23;;;2.93;;
64932;SDS011;51446;53.850;10.662;2022-07-22T03:51:07;6.63;;;2.33;;
64932;SDS011;51446;53.850;10.662;2022-07-22T03:53:33;9.17;;;2.73;;
64932;SDS011;51446;53.850;10.662;2022-07-22T03:55:58;8.80;;;2.40;;
64932;SDS011;51446;53.850;10.662;2022-07-22T03:58:24;8.10;;;2.70;;
64932;SDS011;51446;53.850;10.662;2022-07-22T04:00:51;9.68;;;2.70;;
64932;SDS011;51446;53.850;10.662;2022-07-22T04:03:17;9.07;;;2.97;;
64932;SDS011;51446;53.850;10.662;2022-07-22T04:05:42;14.87;;;3.40;;
64932;SDS011;51446;53.850;10.662;2022-07-22T04:08:08;9.87;;;2.77;;
64932;SDS011;51446;53.850;10.662;2022-07-22T04:10:33;9.20;;;2.90;;
64932;SDS011;51446;53.850;10.662;2022-07-22T04:12:58;7.30;;;3.00;;
64932;SDS011;51446;53.850;10.662;2022-07-22T04:15:23;7.90;;;2.53;;
64932;SDS011;51446;53.850;10.662;2022-07-22T04:17:48;10.27;;;2.33;;
64932;SDS011;51446;53.850;10.662;2022-07-22T04:20:14;9.57;;;2.43;;
64932;SDS011;51446;53.850;10.662;2022-07-22T04:22:39;6.67;;;2.33;;
64932;SDS011;51446;53.850;10.662;2022-07-22T04:25:04;6.77;;;2.50;;
64932;SDS011;51446;53.850;10.662;2022-07-22T04:27:30;7.93;;;2.97;;
64932;SDS011;51446;53.850;10.662;2022-07-22T04:29:56;9.93;;;3.17;;
64932;SDS011;51446;53.850;10.662;2022-07-22T04:32:21;6.78;;;2.45;;
64932;SDS011;51446;53.850;10.662;2022-07-22T04:34:46;8.73;;;2.60;;
64932;SDS011;51446;53.850;10.662;2022-07-22T04:37:12;11.97;;;3.00;;
64932;SDS011;51446;53.850;10.662;2022-07-22T04:39:37;11.68;;;3.03;;
64932;SDS011;51446;53.850;10.662;2022-07-22T04:42:03;8.87;;;2.50;;
64932;SDS011;51446;53.850;10.662;2022-07-22T04:44:28;15.73;;;2.93;;
64932;SDS011;51446;53.850;10.662;2022-07-22T04:46:53;8.37;;;2.57;;
64932;SDS011;51446;53.850;10.662;2022-07-22T04:49:19;8.53;;;2.83;;
64932;SDS011;51446;53.850;10.662;2022-07-22T04:51:44;11.33;;;3.10;;
64932;SDS011;51446;53.850;10.662;2022-07-22T04:54:09;7.60;;;3.00;;
64932;SDS011;51446;53.850;10.662;2022-07-22T04:56:34;8.10;;;3.00;;
64932;SDS011;51446;53.850;10.662;2022-07-22T04:59:00;10.60;;;2.75;;
64932;SDS011;51446;53.850;10.662;2022-07-22T05:01:25;6.13;;;2.83;;
64932;SDS011;51446;53.850;10.662;2022-07-22T05:03:50;9.53;;;3.13;;
64932;SDS011;51446;53.850;10.662;2022-07-22T05:06:17;7.63;;;2.73;;
64932;SDS011;51446;53.850;10.662;2022-07-22T05:08:42;6.25;;;3.15;;
64932;SDS011;51446;53.850;10.662;2022-07-22T05:11:08;8.50;;;3.30;;
64932;SDS011;51446;53.850;10.662;2022-07-22T05:13:33;8.80;;;3.13;;
64932;SDS011;51446;53.850;10.662;2022-07-22T05:16:02;10.87;;;3.43;;
64932;SDS011;51446;53.850;10.662;2022-07-22T05:18:28;9.48;;;3.40;;
64932;SDS011;51446;53.850;10.662;2022-07-22T05:20:53;9.97;;;4.07;;
64932;SDS011;51446;53.850;10.662;2022-07-22T05:23:19;10.77;;;4.10;;
64932;SDS011;51446;53.850;10.662;2022-07-22T05:25:44;15.80;;;4.90;;
64932;SDS011;51446;53.850;10.662;2022-07-22T05:28:09;10.43;;;4.90;;
64932;SDS011;51446;53.850;10.662;2022-07-22T05:30:34;16.27;;;5.60;;
64932;SDS011;51446;53.850;10.662;2022-07-22T05:33:00;15.57;;;5.70;;
64932;SDS011;51446;53.850;10.662;2022-07-22T05:35:25;19.07;;;6.00;;
64932;SDS011;51446;53.850;10.662;2022-07-22T05:37:50;10.97;;;5.27;;
64932;SDS011;51446;53.850;10.662;2022-07-22T05:40:15;15.65;;;5.63;;
64932;SDS011;51446;53.850;10.662;2022-07-22T05:42:41;11.60;;;5.20;;
64932;SDS011;51446;53.850;10.662;2022-07-22T05:45:06;18.70;;;5.50;;
64932;SDS011;51446;53.850;10.662;2022-07-22T05:47:32;17.53;;;5.67;;
64932;SDS011;51446;53.850;10.662;2022-07-22T05:49:57;17.60;;;5.97;;
64932;SDS011;51446;53.850;10.662;2022-07-22T05:52:22;12.67;;;5.73;;
64932;SDS011;51446;53.850;10.662;2022-07-22T05:54:47;13.17;;;5.30;;
64932;SDS011;51446;53.850;10.662;2022-07-22T05:57:13;18.90;;;5.43;;
64932;SDS011;51446;53.850;10.662;2022-07-22T05:59:38;12.17;;;5.13;;
64932;SDS011;51446;53.850;10.662;2022-07-22T06:02:03;14.33;;;5.40;;
64932;SDS011;51446;53.850;10.662;2022-07-22T06:04:29;19.75;;;4.97;;
64932;SDS011;51446;53.850;10.662;2022-07-22T06:06:54;11.37;;;4.73;;
64932;SDS011;51446;53.850;10.662;2022-07-22T06:09:19;15.93;;;4.70;;
64932;SDS011;51446;53.850;10.662;2022-07-22T06:11:45;16.40;;;4.43;;
64932;SDS011;51446;53.850;10.662;2022-07-22T06:14:10;14.80;;;4.80;;
64932;SDS011;51446;53.850;10.662;2022-07-22T06:16:35;16.60;;;4.50;;
64932;SDS011;51446;53.850;10.662;2022-07-22T06:19:01;12.70;;;4.63;;
64932;SDS011;51446;53.850;10.662;2022-07-22T06:21:27;22.92;;;4.70;;
64932;SDS011;51446;53.850;10.662;2022-07-22T06:23:52;10.87;;;3.70;;
64932;SDS011;51446;53.850;10.662;2022-07-22T06:26:17;14.13;;;4.00;;
64932;SDS011;51446;53.850;10.662;2022-07-22T06:28:43;11.87;;;3.67;;
64932;SDS011;51446;53.850;10.662;2022-07-22T06:31:08;13.27;;;4.00;;
64932;SDS011;51446;53.850;10.662;2022-07-22T06:33:33;13.27;;;3.63;;
64932;SDS011;51446;53.850;10.662;2022-07-22T06:35:59;13.20;;;3.40;;
64932;SDS011;51446;53.850;10.662;2022-07-22T06:38:25;16.55;;;3.33;;
64932;SDS011;51446;53.850;10.662;2022-07-22T06:40:50;15.03;;;3.20;;
64932;SDS011;51446;53.850;10.662;2022-07-22T06:43:15;10.00;;;3.03;;
64932;SDS011;51446;53.850;10.662;2022-07-22T06:45:41;13.13;;;3.00;;
64932;SDS011;51446;53.850;10.662;2022-07-22T06:48:06;16.53;;;3.10;;
64932;SDS011;51446;53.850;10.662;2022-07-22T06:50:31;14.00;;;2.63;;
64932;SDS011;51446;53.850;10.662;2022-07-22T06:52:57;14.73;;;3.07;;
64932;SDS011;51446;53.850;10.662;2022-07-22T06:55:22;14.27;;;4.43;;
64932;SDS011;51446;53.850;10.662;2022-07-22T06:57:47;18.00;;;3.33;;
64932;SDS011;51446;53.850;10.662;2022-07-22T07:00:12;15.67;;;2.80;;
64932;SDS011;51446;53.850;10.662;2022-07-22T07:02:38;14.57;;;3.00;;
64932;SDS011;51446;53.850;10.662;2022-07-22T07:05:03;13.87;;;3.47;;
64932;SDS011;51446;53.850;10.662;2022-07-22T07:07:29;13.80;;;2.67;;
64932;SDS011;51446;53.850;10.662;2022-07-22T07:09:54;18.37;;;3.30;;
64932;SDS011;51446;53.850;10.662;2022-07-22T07:12:20;17.20;;;3.47;;
64932;SDS011;51446;53.850;10.662;2022-07-22T07:14:45;19.80;;;3.70;;
64932;SDS011;51446;53.850;10.662;2022-07-22T07:17:10;16.83;;;3.17;;
64932;SDS011;51446;53.850;10.662;2022-07-22T07:19:35;17.30;;;3.70;;
64932;SDS011;51446;53.850;10.662;2022-07-22T07:22:01;13.53;;;3.30;;
64932;SDS011;51446;53.850;10.662;2022-07-22T07:24:26;10.47;;;3.23;;
64932;SDS011;51446;53.850;10.662;2022-07-22T07:26:51;14.17;;;3.70;;
64932;SDS011;51446;53.850;10.662;2022-07-22T07:29:16;14.00;;;3.03;;
64932;SDS011;51446;53.850;10.662;2022-07-22T07:31:42;15.20;;;3.70;;
64932;SDS011;51446;53.850;10.662;2022-07-22T07:34:07;9.73;;;3.10;;
64932;SDS011;51446;53.850;10.662;2022-07-22T07:36:32;13.33;;;3.10;;
64932;SDS011;51446;53.850;10.662;2022-07-22T07:38:58;16.50;;;2.90;;
64932;SDS011;51446;53.850;10.662;2022-07-22T07:41:23;12.45;;;2.92;;
64932;SDS011;51446;53.850;10.662;2022-07-22T07:43:48;15.07;;;3.40;;
64932;SDS011;51446;53.850;10.662;2022-07-22T07:46:14;14.30;;;3.70;;
64932;SDS011;51446;53.850;10.662;2022-07-22T07:48:39;14.57;;;2.57;;
64932;SDS011;51446;53.850;10.662;2022-07-22T07:51:04;11.70;;;3.30;;
64932;SDS011;51446;53.850;10.662;2022-07-22T07:53:30;20.50;;;3.60;;
64932;SDS011;51446;53.850;10.662;2022-07-22T07:55:55;14.13;;;3.13;;
64932;SDS011;51446;53.850;10.662;2022-07-22T07:58:20;14.73;;;3.00;;
64932;SDS011;51446;53.850;10.662;2022-07-22T08:00:46;14.43;;;3.17;;
64932;SDS011;51446;53.850;10.662;2022-07-22T08:03:11;15.50;;;3.20;;
64932;SDS011;51446;53.850;10.662;2022-07-22T08:05:37;10.63;;;2.95;;
64932;SDS011;51446;53.850;10.662;2022-07-22T08:08:07;12.65;;;2.97;;
64932;SDS011;51446;53.850;10.662;2022-07-22T08:10:32;18.70;;;3.40;;
64932;SDS011;51446;53.850;10.662;2022-07-22T08:12:58;12.05;;;2.55;;
64932;SDS011;51446;53.850;10.662;2022-07-22T08:15:24;10.57;;;2.83;;
64932;SDS011;51446;53.850;10.662;2022-07-22T08:17:50;10.23;;;2.60;;
64932;SDS011;51446;53.850;10.662;2022-07-22T08:20:16;14.52;;;3.33;;
64932;SDS011;51446;53.850;10.662;2022-07-22T08:22:41;11.97;;;2.67;;
64932;SDS011;51446;53.850;10.662;2022-07-22T08:25:07;7.70;;;2.40;;
64932;SDS011;51446;53.850;10.662;2022-07-22T08:27:33;12.32;;;2.90;;
64932;SDS011;51446;53.850;10.662;2022-07-22T08:29:59;13.77;;;2.57;;
64932;SDS011;51446;53.850;10.662;2022-07-22T08:32:24;9.40;;;2.20;;
64932;SDS011;51446;53.850;10.662;2022-07-22T08:34:49;8.03;;;2.47;;
64932;SDS011;51446;53.850;10.662;2022-07-22T08:37:16;8.98;;;2.30;;
64932;SDS011;51446;53.850;10.662;2022-07-22T08:39:41;12.13;;;2.47;;
64932;SDS011;51446;53.850;10.662;2022-07-22T08:42:06;14.17;;;2.67;;
64932;SDS011;51446;53.850;10.662;2022-07-22T08:44:33;10.80;;;2.20;;
64932;SDS011;51446;53.850;10.662;2022-07-22T08:46:59;8.40;;;2.13;;
64932;SDS011;51446;53.850;10.662;2022-07-22T08:49:25;6.90;;;1.87;;
64932;SDS011;51446;53.850;10.662;2022-07-22T08:51:51;10.52;;;1.67;;
64932;SDS011;51446;53.850;10.662;2022-07-22T08:54:16;8.53;;;1.90;;
64932;SDS011;51446;53.850;10.662;2022-07-22T08:56:43;9.17;;;2.10;;
64932;SDS011;51446;53.850;10.662;2022-07-22T08:59:11;11.32;;;2.00;;
64932;SDS011;51446;53.850;10.662;2022-07-22T09:01:36;10.83;;;2.20;;
64932;SDS011;51446;53.850;10.662;2022-07-22T09:04:02;8.33;;;1.77;;
64932;SDS011;51446;53.850;10.662;2022-07-22T09:06:28;11.75;;;2.28;;
64932;SDS011;51446;53.850;10.662;2022-07-22T09:08:59;8.15;;;2.20;;
64932;SDS011;51446;53.850;10.662;2022-07-22T09:11:28;10.47;;;2.20;;
64932;SDS011;51446;53.850;10.662;2022-07-22T09:13:54;7.78;;;1.92;;
64932;SDS011;51446;53.850;10.662;2022-07-22T09:19:13;14.80;;;2.13;;
64932;SDS011;51446;53.850;10.662;2022-07-22T09:21:43;10.70;;;2.35;;
64932;SDS011;51446;53.850;10.662;2022-07-22T09:24:33;11.07;;;2.27;;
64932;SDS011;51446;53.850;10.662;2022-07-22T09:26:59;8.68;;;2.22;;
64932;SDS011;51446;53.850;10.662;2022-07-22T09:29:24;6.13;;;1.80;;
64932;SDS011;51446;53.850;10.662;2022-07-22T09:31:50;16.47;;;1.97;;
64932;SDS011;51446;53.850;10.662;2022-07-22T09:34:35;11.68;;;2.05;;
64932;SDS011;51446;53.850;10.662;2022-07-22T09:37:01;9.93;;;1.92;;
64932;SDS011;51446;53.850;10.662;2022-07-22T09:39:27;8.57;;;1.83;;
64932;SDS011;51446;53.850;10.662;2022-07-22T09:42:01;5.90;;;2.10;;
64932;SDS011;51446;53.850;10.662;2022-07-22T09:44:29;6.78;;;1.73;;
64932;SDS011;51446;53.850;10.662;2022-07-22T09:46:54;9.37;;;1.80;;
64932;SDS011;51446;53.850;10.662;2022-07-22T09:49:35;10.63;;;1.90;;
64932;SDS011;51446;53.850;10.662;2022-07-22T09:52:05;6.68;;;1.77;;
64932;SDS011;51446;53.850;10.662;2022-07-22T09:54:30;5.03;;;1.47;;
64932;SDS011;51446;53.850;10.662;2022-07-22T09:56:56;9.88;;;1.92;;
64932;SDS011;51446;53.850;10.662;2022-07-22T09:59:22;7.78;;;1.80;;
64932;SDS011;51446;53.850;10.662;2022-07-22T10:01:48;10.23;;;1.90;;
64932;SDS011;51446;53.850;10.662;2022-07-22T10:04:16;8.13;;;1.73;;
64932;SDS011;51446;53.850;10.662;2022-07-22T10:06:45;6.07;;;2.00;;
64932;SDS011;51446;53.850;10.662;2022-07-22T10:09:12;10.88;;;2.15;;
64932;SDS011;51446;53.850;10.662;2022-07-22T10:11:40;9.43;;;1.50;;
64932;SDS011;51446;53.850;10.662;2022-07-22T10:14:10;11.18;;;1.70;;
64932;SDS011;51446;53.850;10.662;2022-07-22T10:16:42;5.80;;;1.50;;
64932;SDS011;51446;53.850;10.662;2022-07-22T10:19:08;7.88;;;1.75;;
64932;SDS011;51446;53.850;10.662;2022-07-22T10:21:35;8.57;;;1.80;;
64932;SDS011;51446;53.850;10.662;2022-07-22T10:26:46;6.30;;;1.67;;
64932;SDS011;51446;53.850;10.662;2022-07-22T10:34:40;7.43;;;1.80;;
64932;SDS011;51446;53.850;10.662;2022-07-22T10:37:29;11.33;;;2.00;;
64932;SDS011;51446;53.850;10.662;2022-07-22T10:40:19;7.70;;;2.00;;
64932;SDS011;51446;53.850;10.662;2022-07-22T10:45:26;10.23;;;1.35;;
64932;SDS011;51446;53.850;10.662;2022-07-22T10:48:00;6.90;;;1.80;;
64932;SDS011;51446;53.850;10.662;2022-07-22T10:53:02;5.95;;;1.38;;
64932;SDS011;51446;53.850;10.662;2022-07-22T10:55:29;9.10;;;1.63;;
64932;SDS011;51446;53.850;10.662;2022-07-22T10:57:54;6.22;;;1.60;;
64932;SDS011;51446;53.850;10.662;2022-07-22T11:00:20;8.20;;;1.47;;
64932;SDS011;51446;53.850;10.662;2022-07-22T11:02:46;6.73;;;1.60;;
64932;SDS011;51446;53.850;10.662;2022-07-22T11:05:11;7.07;;;1.30;;
64932;SDS011;51446;53.850;10.662;2022-07-22T11:07:44;5.37;;;1.97;;
64932;SDS011;51446;53.850;10.662;2022-07-22T11:10:11;6.15;;;2.28;;
64932;SDS011;51446;53.850;10.662;2022-07-22T11:12:40;6.95;;;1.40;;
64932;SDS011;51446;53.850;10.662;2022-07-22T11:15:06;7.30;;;1.40;;
64932;SDS011;51446;53.850;10.662;2022-07-22T11:17:32;4.60;;;1.52;;
64932;SDS011;51446;53.850;10.662;2022-07-22T11:19:59;3.03;;;1.20;;
64932;SDS011;51446;53.850;10.662;2022-07-22T11:22:26;5.47;;;1.35;;
64932;SDS011;51446;53.850;10.662;2022-07-22T11:24:52;6.93;;;1.30;;
64932;SDS011;51446;53.850;10.662;2022-07-22T11:27:18;4.17;;;1.33;;
64932;SDS011;51446;53.850;10.662;2022-07-22T11:29:49;4.35;;;1.15;;
64932;SDS011;51446;53.850;10.662;2022-07-22T11:32:15;5.60;;;1.20;;
64932;SDS011;51446;53.850;10.662;2022-07-22T11:34:43;5.30;;;1.33;;
64932;SDS011;51446;53.850;10.662;2022-07-22T11:37:11;6.45;;;1.48;;
64932;SDS011;51446;53.850;10.662;2022-07-22T11:39:38;4.68;;;1.10;;
64932;SDS011;51446;53.850;10.662;2022-07-22T11:42:03;9.93;;;1.37;;
64932;SDS011;51446;53.850;10.662;2022-07-22T11:44:30;5.25;;;1.33;;
64932;SDS011;51446;53.850;10.662;2022-07-22T11:46:57;6.78;;;1.70;;
64932;SDS011;51446;53.850;10.662;2022-07-22T11:49:26;4.57;;;1.50;;
64932;SDS011;51446;53.850;10.662;2022-07-22T11:51:53;8.85;;;1.63;;
64932;SDS011;51446;53.850;10.662;2022-07-22T11:54:19;6.82;;;1.17;;
64932;SDS011;51446;53.850;10.662;2022-07-22T11:56:44;8.87;;;1.47;;
64932;SDS011;51446;53.850;10.662;2022-07-22T11:59:14;6.83;;;1.57;;
64932;SDS011;51446;53.850;10.662;2022-07-22T12:01:41;9.23;;;1.60;;
64932;SDS011;51446;53.850;10.662;2022-07-22T12:04:11;11.43;;;1.40;;
64932;SDS011;51446;53.850;10.662;2022-07-22T12:06:42;7.57;;;1.40;;
64932;SDS011;51446;53.850;10.662;2022-07-22T12:09:09;6.97;;;1.40;;
64932;SDS011;51446;53.850;10.662;2022-07-22T12:11:41;7.90;;;1.80;;
64932;SDS011;51446;53.850;10.662;2022-07-22T12:14:09;6.85;;;1.40;;
64932;SDS011;51446;53.850;10.662;2022-07-22T12:16:36;10.00;;;1.75;;
64932;SDS011;51446;53.850;10.662;2022-07-22T12:19:04;8.63;;;1.60;;
64932;SDS011;51446;53.850;10.662;2022-07-22T12:21:34;6.47;;;1.40;;
64932;SDS011;51446;53.850;10.662;2022-07-22T12:24:05;7.97;;;2.05;;
64932;SDS011;51446;53.850;10.662;2022-07-22T12:31:54;8.57;;;2.10;;
64932;SDS011;51446;53.850;10.662;2022-07-22T12:34:40;9.60;;;1.60;;
64932;SDS011;51446;53.850;10.662;2022-07-22T12:37:19;8.07;;;1.65;;
64932;SDS011;51446;53.850;10.662;2022-07-22T12:39:52;9.32;;;1.75;;
64932;SDS011;51446;53.850;10.662;2022-07-22T12:42:18;7.18;;;1.73;;
64932;SDS011;51446;53.850;10.662;2022-07-22T12:44:51;7.37;;;1.83;;
64932;SDS011;51446;53.850;10.662;2022-07-22T12:50:30;7.90;;;1.65;;
64932;SDS011;51446;53.850;10.662;2022-07-22T12:53:06;6.47;;;1.52;;
64932;SDS011;51446;53.850;10.662;2022-07-22T12:55:34;5.55;;;1.20;;
64932;SDS011;51446;53.850;10.662;2022-07-22T12:58:04;6.20;;;1.57;;
64932;SDS011;51446;53.850;10.662;2022-07-22T13:00:32;7.50;;;1.58;;
64932;SDS011;51446;53.850;10.662;2022-07-22T13:02:59;8.10;;;1.33;;
64932;SDS011;51446;53.850;10.662;2022-07-22T13:05:26;8.57;;;1.60;;
64932;SDS011;51446;53.850;10.662;2022-07-22T13:07:52;4.80;;;1.40;;
64932;SDS011;51446;53.850;10.662;2022-07-22T13:10:18;6.32;;;1.40;;
64932;SDS011;51446;53.850;10.662;2022-07-22T13:12:45;3.50;;;1.20;;
64932;SDS011;51446;53.850;10.662;2022-07-22T13:15:10;6.20;;;1.10;;
64932;SDS011;51446;53.850;10.662;2022-07-22T13:17:36;6.35;;;1.48;;
64932;SDS011;51446;53.850;10.662;2022-07-22T13:20:03;6.70;;;1.60;;
64932;SDS011;51446;53.850;10.662;2022-07-22T13:22:29;4.10;;;1.35;;
64932;SDS011;51446;53.850;10.662;2022-07-22T13:24:54;8.00;;;1.83;;
64932;SDS011;51446;53.850;10.662;2022-07-22T13:27:20;5.13;;;1.40;;
64932;SDS011;51446;53.850;10.662;2022-07-22T13:29:45;4.85;;;1.30;;
64932;SDS011;51446;53.850;10.662;2022-07-22T13:32:11;8.60;;;1.80;;
64932;SDS011;51446;53.850;10.662;2022-07-22T13:34:36;9.47;;;1.57;;
64932;SDS011;51446;53.850;10.662;2022-07-22T13:37:01;5.83;;;1.40;;
64932;SDS011;51446;53.850;10.662;2022-07-22T13:39:26;4.90;;;1.20;;
64932;SDS011;51446;53.850;10.662;2022-07-22T13:41:52;3.10;;;0.87;;
64932;SDS011;51446;53.850;10.662;2022-07-22T13:44:17;7.87;;;1.70;;
64932;SDS011;51446;53.850;10.662;2022-07-22T13:46:43;9.23;;;1.40;;
64932;SDS011;51446;53.850;10.662;2022-07-22T13:49:08;5.83;;;1.40;;
64932;SDS011;51446;53.850;10.662;2022-07-22T13:51:33;6.03;;;1.10;;
64932;SDS011;51446;53.850;10.662;2022-07-22T13:53:59;6.57;;;1.57;;
64932;SDS011;51446;53.850;10.662;2022-07-22T13:56:24;5.27;;;1.00;;
64932;SDS011;51446;53.850;10.662;2022-07-22T13:58:50;5.97;;;1.40;;
64932;SDS011;51446;53.850;10.662;2022-07-22T14:01:15;8.27;;;1.57;;
64932;SDS011;51446;53.850;10.662;2022-07-22T14:03:40;6.10;;;1.07;;
64932;SDS011;51446;53.850;10.662;2022-07-22T14:06:06;8.10;;;1.50;;
64932;SDS011;51446;53.850;10.662;2022-07-22T14:08:33;7.53;;;1.40;;
64932;SDS011;51446;53.850;10.662;2022-07-22T14:10:58;7.17;;;1.33;;
64932;SDS011;51446;53.850;10.662;2022-07-22T14:13:24;9.07;;;1.47;;
64932;SDS011;51446;53.850;10.662;2022-07-22T14:15:49;5.93;;;1.90;;
64932;SDS011;51446;53.850;10.662;2022-07-22T14:18:14;4.90;;;1.40;;
64932;SDS011;51446;53.850;10.662;2022-07-22T14:20:40;9.50;;;1.33;;
64932;SDS011;51446;53.850;10.662;2022-07-22T14:23:05;6.80;;;1.38;;
64932;SDS011;51446;53.850;10.662;2022-07-22T14:25:32;6.68;;;1.30;;
64932;SDS011;51446;53.850;10.662;2022-07-22T14:27:58;7.93;;;2.77;;
64932;SDS011;51446;53.850;10.662;2022-07-22T14:30:23;9.23;;;3.93;;
64932;SDS011;51446;53.850;10.662;2022-07-22T14:32:49;4.00;;;1.20;;
64932;SDS011;51446;53.850;10.662;2022-07-22T14:35:14;6.60;;;1.15;;
64932;SDS011;51446;53.850;10.662;2022-07-22T14:37:39;5.00;;;1.50;;
64932;SDS011;51446;53.850;10.662;2022-07-22T14:40:05;4.03;;;1.10;;
64932;SDS011;51446;53.850;10.662;2022-07-22T14:42:30;6.03;;;0.90;;
64932;SDS011;51446;53.850;10.662;2022-07-22T14:44:56;4.13;;;1.30;;